createdAt,value
2019-01-19T00:01:27.774Z,6.9
2019-01-19T00:11:26.517Z,8.1
2019-01-19T00:21:26.509Z,8.2
2019-01-19T00:31:26.223Z,8.1
2019-01-19T00:41:26.872Z,9.0
2019-01-19T00:51:26.536Z,9.9
2019-01-19T01:01:26.222Z,9.2
2019-01-19T01:11:26.106Z,9.5
2019-01-19T01:21:26.522Z,9.8
2019-01-19T01:31:27.097Z,8.9
2019-01-19T01:41:27.155Z,10.4
2019-01-19T01:51:27.634Z,10.8
2019-01-19T02:01:26.385Z,10.5
2019-01-19T02:11:26.601Z,12.3
2019-01-19T02:21:26.812Z,11.2
2019-01-19T02:31:28.782Z,11.4
2019-01-19T02:41:27.293Z,11.8
2019-01-19T02:51:26.039Z,10.9
2019-01-19T03:01:26.372Z,11.7
2019-01-19T03:11:26.157Z,10.9
2019-01-19T03:21:26.024Z,8.3
2019-01-19T03:31:25.759Z,8.6
2019-01-19T03:41:27.835Z,8.9
2019-01-19T03:51:26.108Z,10.3
2019-01-19T04:01:27.822Z,9.9
2019-01-19T04:11:26.505Z,12.4
2019-01-19T04:21:27.722Z,11.6
2019-01-19T04:31:27.911Z,12.2
2019-01-19T04:41:27.098Z,12.9
2019-01-19T04:51:25.809Z,13.1
2019-01-19T05:01:26.462Z,13.5
2019-01-19T05:11:35.040Z,14.2
2019-01-19T05:21:26.168Z,14.4
2019-01-19T05:31:26.165Z,12.3
2019-01-19T05:41:27.638Z,14.6
2019-01-19T05:51:26.604Z,14.9
2019-01-19T06:01:26.369Z,13.3
2019-01-19T06:11:26.767Z,13.2
2019-01-19T06:21:26.813Z,14.3
2019-01-19T06:31:26.602Z,14.2
2019-01-19T06:41:26.289Z,15.8
2019-01-19T06:51:26.090Z,15.6
2019-01-19T07:01:26.333Z,17.7
2019-01-19T07:11:26.214Z,16.6
2019-01-19T07:21:26.172Z,15.6
2019-01-19T07:31:25.969Z,15.6
2019-01-19T07:41:27.155Z,16.2
2019-01-19T07:51:26.022Z,14.2
2019-01-19T08:01:26.612Z,13.8
2019-01-19T08:11:26.210Z,13.4
2019-01-19T08:21:27.098Z,12.4
2019-01-19T08:31:26.466Z,13.5
2019-01-19T08:41:26.203Z,11.9
2019-01-19T08:51:26.218Z,12.6
2019-01-19T09:01:27.152Z,12.4
2019-01-19T09:11:25.794Z,12.6
2019-01-19T09:21:26.522Z,13.0
2019-01-19T09:31:26.719Z,11.4
2019-01-19T09:41:26.761Z,12.0
2019-01-19T09:51:27.306Z,13.0
2019-01-19T10:01:26.641Z,11.9
2019-01-19T10:11:26.353Z,11.9
2019-01-19T10:21:27.730Z,11.4
2019-01-19T10:31:26.824Z,23.5
2019-01-19T10:41:29.086Z,10.9
2019-01-19T10:51:25.863Z,9.0
2019-01-19T11:01:26.513Z,9.0
2019-01-19T11:11:26.497Z,9.2
2019-01-19T11:21:26.405Z,10.9
2019-01-19T11:31:26.285Z,10.3
2019-01-19T11:41:27.224Z,10.1
2019-01-19T11:51:26.351Z,10.2
2019-01-19T12:01:26.266Z,9.7
2019-01-19T12:11:26.678Z,10.2
2019-01-19T12:21:26.893Z,9.3
2019-01-19T12:31:27.146Z,8.9
2019-01-19T12:41:26.906Z,8.9
2019-01-19T12:51:26.061Z,10.2
2019-01-19T13:01:26.660Z,10.0
2019-01-19T13:11:26.409Z,9.5
2019-01-19T13:21:27.422Z,9.3
2019-01-19T13:31:26.591Z,9.9
2019-01-19T13:41:27.259Z,9.1
2019-01-19T13:52:12.485Z,8.7
2019-01-19T14:01:26.980Z,9.9
2019-01-19T14:11:27.351Z,9.8
2019-01-19T14:21:26.308Z,9.5
2019-01-19T14:31:26.412Z,10.4
2019-01-19T14:41:26.499Z,10.8
2019-01-19T14:51:26.388Z,11.2
2019-01-19T15:01:26.442Z,10.8
2019-01-19T15:11:26.477Z,11.3
2019-01-19T15:21:26.601Z,10.7
2019-01-19T15:31:26.228Z,10.1
2019-01-19T15:41:26.049Z,9.4
2019-01-19T15:51:26.219Z,11.0
2019-01-19T16:01:25.879Z,10.4
2019-01-19T16:11:26.861Z,14.9
2019-01-19T16:21:27.753Z,16.2
2019-01-19T16:31:27.720Z,17.1
2019-01-19T16:41:27.210Z,17.9
2019-01-19T16:51:25.849Z,20.2
2019-01-19T17:01:26.090Z,21.0
2019-01-19T17:11:26.867Z,20.6
2019-01-19T17:21:28.039Z,20.9
2019-01-19T17:31:25.899Z,20.6
2019-01-19T17:41:25.749Z,25.0
2019-01-19T17:51:26.805Z,30.7
2019-01-19T18:01:27.064Z,30.8
2019-01-19T18:11:26.769Z,31.2
2019-01-19T18:21:26.006Z,38.6
2019-01-19T18:31:26.147Z,44.0
2019-01-19T18:41:26.321Z,48.7
2019-01-19T18:51:28.347Z,46.8
2019-01-19T19:01:26.122Z,48.8
2019-01-19T19:11:26.005Z,49.9
2019-01-19T19:21:25.866Z,52.1
2019-01-19T19:31:37.962Z,56.6
2019-01-19T19:41:27.804Z,61.6
2019-01-19T19:51:26.323Z,62.0
2019-01-19T20:01:26.590Z,62.3
2019-01-19T20:11:26.519Z,66.5
2019-01-19T20:21:26.486Z,65.0
2019-01-19T20:31:26.592Z,62.8
2019-01-19T20:41:27.042Z,62.7
2019-01-19T20:51:25.777Z,62.5
2019-01-19T21:01:27.972Z,66.1
2019-01-19T21:11:26.837Z,61.7
2019-01-19T21:21:26.840Z,63.0
2019-01-19T21:31:26.557Z,64.7
2019-01-19T21:41:26.282Z,62.6
2019-01-19T21:51:26.959Z,67.2
2019-01-19T22:01:26.732Z,68.2
2019-01-19T22:11:26.639Z,72.5
2019-01-19T22:21:26.897Z,71.0
2019-01-19T22:31:26.887Z,73.6
2019-01-19T22:41:26.615Z,70.6
2019-01-19T22:51:26.533Z,68.4
2019-01-19T23:01:26.480Z,74.1
2019-01-19T23:11:33.631Z,75.5
2019-01-19T23:21:26.356Z,76.8
2019-01-19T23:31:28.355Z,74.4
2019-01-19T23:41:28.234Z,73.9
2019-01-19T23:51:26.293Z,67.7
